Time;durP1;ratioP1;P1;durP2;ratioP2;P2;SDS_P1;SDS_P2;PMS_P1;PMS_P2;Temp;Humidity;BMP_temperature;BMP_pressure;BME280_temperature;BME280_humidity;BME280_pressure;Samples;Min_cycle;Max_cycle;Signal;HPM_P1;HPM_P2
2022/07/03 00:01:32;;;;;;;6.88;4.63;;;27.40;67.20;;;;;;4954842;28;20191;-71
2022/07/03 00:04:01;;;;;;;11.35;4.75;;;27.40;67.20;;;;;;4954135;28;20198;-71
2022/07/03 00:06:30;;;;;;;8.80;4.55;;;27.40;67.40;;;;;;4959533;28;20202;-71
2022/07/03 00:09:00;;;;;;;9.55;4.53;;;27.40;67.60;;;;;;4957173;28;20205;-71
2022/07/03 00:11:32;;;;;;;10.23;5.13;;;27.40;67.70;;;;;;4952907;28;20866;-73
2022/07/03 00:14:01;;;;;;;6.28;5.07;;;27.40;67.90;;;;;;4956830;28;21003;-71
2022/07/03 00:16:29;;;;;;;8.10;5.05;;;27.40;67.80;;;;;;4961865;28;20205;-71
2022/07/03 00:18:58;;;;;;;8.98;4.53;;;27.40;67.90;;;;;;4959483;28;20213;-71
2022/07/03 00:21:29;;;;;;;9.20;4.82;;;27.40;68.00;;;;;;4962227;28;20206;-71
2022/07/03 00:24:03;;;;;;;9.35;5.30;;;27.40;68.10;;;;;;4953692;28;20201;-71
2022/07/03 00:26:35;;;;;;;7.45;4.38;;;27.40;68.20;;;;;;4949611;28;20192;-71
2022/07/03 00:29:04;;;;;;;9.02;4.53;;;27.40;68.40;;;;;;4959487;28;20592;-71
2022/07/03 00:31:34;;;;;;;8.18;5.03;;;27.30;68.30;;;;;;4959378;28;20209;-71
2022/07/03 00:34:03;;;;;;;11.30;5.13;;;27.30;68.20;;;;;;4959867;28;20653;-71
2022/07/03 00:36:38;;;;;;;8.50;5.57;;;27.30;68.30;;;;;;4957076;28;20656;-72
2022/07/03 00:39:07;;;;;;;8.00;4.65;;;27.30;68.50;;;;;;4961976;28;20223;-71
2022/07/03 00:41:37;;;;;;;4.97;3.85;;;27.30;69.30;;;;;;4956199;28;20204;-71
2022/07/03 00:44:05;;;;;;;7.93;4.93;;;27.30;68.50;;;;;;4961186;28;20209;-72
2022/07/03 00:46:39;;;;;;;6.32;4.40;;;27.30;68.60;;;;;;4962683;28;20189;-71
2022/07/03 00:49:10;;;;;;;7.05;4.57;;;27.20;68.50;;;;;;4957163;28;20206;-71
2022/07/03 00:51:41;;;;;;;10.13;5.55;;;27.30;68.60;;;;;;4952642;28;20237;-71
2022/07/03 00:54:17;;;;;;;9.68;4.53;;;27.30;68.80;;;;;;4953978;28;20296;-71
2022/07/03 00:56:51;;;;;;;7.88;5.00;;;27.20;68.80;;;;;;4962698;28;20197;-71
2022/07/03 00:59:20;;;;;;;9.95;5.28;;;27.30;68.80;;;;;;4959085;28;20193;-71
2022/07/03 01:01:56;;;;;;;7.63;4.95;;;27.20;68.50;;;;;;4954899;28;20668;-71
2022/07/03 01:04:37;;;;;;;9.77;4.85;;;27.30;68.50;;;;;;4961954;28;20204;-71
2022/07/03 01:07:12;;;;;;;6.70;4.22;;;27.30;68.50;;;;;;4958135;28;20202;-71
2022/07/03 01:09:56;;;;;;;7.15;4.30;;;27.30;68.40;;;;;;4959930;28;20196;-71
2022/07/03 01:12:32;;;;;;;7.63;4.78;;;27.30;68.30;;;;;;4959532;28;20209;-73
2022/07/03 01:15:10;;;;;;;9.77;4.72;;;27.30;68.20;;;;;;4959392;28;20193;-72
2022/07/03 01:17:43;;;;;;;8.32;5.00;;;27.30;68.20;;;;;;4964595;28;20197;-70
2022/07/03 01:20:12;;;;;;;10.18;5.25;;;27.30;68.60;;;;;;4955933;28;20197;-71
2022/07/03 01:22:45;;;;;;;7.80;4.75;;;27.30;68.20;;;;;;4961401;28;20699;-71
2022/07/03 01:25:17;;;;;;;8.55;4.80;;;27.30;68.30;;;;;;4960423;28;20198;-71
2022/07/03 01:28:08;;;;;;;7.15;4.47;;;27.30;68.50;;;;;;4965817;28;20213;-73
2022/07/03 01:30:39;;;;;;;7.72;4.80;;;27.20;68.60;;;;;;4958974;28;20225;-72
2022/07/03 01:33:09;;;;;;;9.05;5.40;;;27.20;68.60;;;;;;4962063;28;20220;-72
2022/07/03 01:35:39;;;;;;;8.48;4.78;;;27.20;68.60;;;;;;4965112;28;20202;-72
2022/07/03 01:38:12;;;;;;;18.60;5.57;;;27.20;68.90;;;;;;4967474;28;20212;-72
2022/07/03 01:40:42;;;;;;;8.60;4.95;;;27.20;69.10;;;;;;4957002;28;20190;-73
2022/07/03 01:43:13;;;;;;;7.55;5.03;;;27.10;70.00;;;;;;4966175;28;20204;-73
2022/07/03 01:45:45;;;;;;;7.95;4.65;;;27.10;69.20;;;;;;4961870;28;20241;-73
2022/07/03 01:48:14;;;;;;;9.85;5.00;;;27.10;69.20;;;;;;4962827;28;20190;-73
2022/07/03 01:50:43;;;;;;;16.40;4.95;;;27.10;69.20;;;;;;4957153;28;21398;-73
2022/07/03 01:53:13;;;;;;;9.27;5.07;;;27.10;69.30;;;;;;4961246;28;20232;-71
2022/07/03 01:55:43;;;;;;;7.88;4.82;;;27.00;69.20;;;;;;4962429;28;20194;-73
2022/07/03 01:58:13;;;;;;;7.38;4.38;;;27.00;69.20;;;;;;4957732;28;20199;-73
2022/07/03 02:00:47;;;;;;;9.50;5.07;;;27.00;69.40;;;;;;4964794;28;20412;-73
2022/07/03 02:03:26;;;;;;;10.50;4.82;;;27.00;69.50;;;;;;4965111;28;20215;-73
2022/07/03 02:06:03;;;;;;;6.63;4.80;;;26.90;69.50;;;;;;4960678;28;20198;-72
2022/07/03 02:08:45;;;;;;;6.43;4.43;;;26.90;70.50;;;;;;4965438;28;20205;-73
2022/07/03 02:11:37;;;;;;;6.15;3.85;;;26.90;69.60;;;;;;4959821;28;20209;-73
2022/07/03 02:14:13;;;;;;;8.00;5.25;;;26.80;69.50;;;;;;4962251;28;20713;-71
2022/07/03 02:16:54;;;;;;;10.27;4.57;;;26.80;69.50;;;;;;4955973;28;20193;-73
2022/07/03 02:19:29;;;;;;;6.85;4.47;;;26.80;69.30;;;;;;4962643;28;20201;-73
2022/07/03 02:21:58;;;;;;;7.78;4.88;;;26.80;69.10;;;;;;4955683;28;20200;-71
2022/07/03 02:24:29;;;;;;;9.07;4.80;;;26.80;68.90;;;;;;4959437;28;20194;-73
2022/07/03 02:27:04;;;;;;;6.07;3.97;;;26.80;68.90;;;;;;4955634;28;20198;-74
2022/07/03 02:29:37;;;;;;;11.23;5.25;;;26.80;68.80;;;;;;4956689;28;20189;-73
2022/07/03 02:32:11;;;;;;;7.75;4.63;;;26.80;68.80;;;;;;4965712;28;20499;-73
2022/07/03 02:34:46;;;;;;;9.65;4.47;;;26.80;68.80;;;;;;4960417;28;20205;-73
2022/07/03 02:37:18;;;;;;;12.38;4.60;;;26.80;68.80;;;;;;4963544;28;20240;-73
2022/07/03 02:39:51;;;;;;;9.50;4.93;;;26.80;68.90;;;;;;4959027;28;20198;-73
2022/07/03 02:42:31;;;;;;;10.93;5.68;;;26.80;69.00;;;;;;4959125;28;20204;-73
2022/07/03 02:45:04;;;;;;;8.82;5.35;;;26.70;68.90;;;;;;4955740;28;20186;-73
2022/07/03 02:47:42;;;;;;;7.45;4.45;;;26.70;69.00;;;;;;4964855;28;20759;-72
2022/07/03 02:50:16;;;;;;;9.57;4.82;;;26.70;69.10;;;;;;4964801;28;20257;-73
2022/07/03 02:52:57;;;;;;;10.15;4.88;;;26.70;69.10;;;;;;4963335;28;20791;-75
2022/07/03 02:55:43;;;;;;;8.88;4.75;;;26.70;69.40;;;;;;4958074;28;20201;-73
2022/07/03 02:58:41;;;;;;;9.10;5.38;;;26.70;69.60;;;;;;4963912;28;20197;-73
2022/07/03 03:01:25;;;;;;;7.68;5.18;;;26.60;69.70;;;;;;4935671;28;20201;-73
2022/07/03 03:04:08;;;;;;;10.23;5.25;;;26.60;69.80;;;;;;4960184;28;20787;-73
2022/07/03 03:06:38;;;;;;;9.90;5.95;;;26.60;69.80;;;;;;4961444;28;20284;-73
2022/07/03 03:09:12;;;;;;;10.65;5.55;;;26.60;70.00;;;;;;4958543;28;20198;-73
2022/07/03 03:11:45;;;;;;;9.30;5.80;;;26.60;70.30;;;;;;4962184;28;20877;-73
2022/07/03 03:14:16;;;;;;;10.27;6.22;;;26.60;70.60;;;;;;4964465;28;20202;-74
2022/07/03 03:16:49;;;;;;;8.05;5.95;;;26.60;70.80;;;;;;4955560;28;20197;-73
2022/07/03 03:19:22;;;;;;;9.63;5.95;;;26.60;71.20;;;;;;4961824;28;20229;-73
2022/07/03 03:22:00;;;;;;;9.52;5.82;;;26.50;71.30;;;;;;4959777;28;20570;-73
2022/07/03 03:24:29;;;;;;;9.43;6.10;;;26.50;71.50;;;;;;4961857;28;20189;-74
2022/07/03 03:26:59;;;;;;;11.88;6.47;;;26.50;71.60;;;;;;4959906;28;20648;-73
2022/07/03 03:29:28;;;;;;;9.23;5.78;;;26.60;71.80;;;;;;4959559;28;20198;-73
2022/07/03 03:31:58;;;;;;;9.45;6.38;;;26.50;72.00;;;;;;4960201;28;20582;-72
2022/07/03 03:34:32;;;;;;;9.10;6.00;;;26.50;72.40;;;;;;4965065;28;20267;-73
2022/07/03 03:37:01;;;;;;;12.68;6.07;;;26.50;72.40;;;;;;4958564;28;20668;-73
2022/07/03 03:39:30;;;;;;;10.43;6.68;;;26.50;72.50;;;;;;4962896;28;20201;-73
2022/07/03 03:42:00;;;;;;;11.20;6.15;;;26.60;72.80;;;;;;4955989;28;20205;-73
2022/07/03 03:44:29;;;;;;;10.45;6.00;;;26.50;72.90;;;;;;4962187;28;20221;-73
2022/07/03 03:46:59;;;;;;;12.85;6.43;;;26.60;73.10;;;;;;4961976;28;20667;-73
2022/07/03 03:49:28;;;;;;;10.38;5.97;;;26.60;73.30;;;;;;4956024;28;20212;-73
2022/07/03 03:51:57;;;;;;;13.45;6.68;;;26.60;73.40;;;;;;4968289;28;20212;-73
2022/07/03 03:54:25;;;;;;;17.48;6.53;;;26.60;73.60;;;;;;4957236;28;20321;-73
2022/07/03 03:56:54;;;;;;;12.73;5.95;;;26.60;73.60;;;;;;4955044;28;20205;-73
2022/07/03 03:59:22;;;;;;;13.18;6.53;;;26.70;73.70;;;;;;4960240;28;20201;-73
2022/07/03 04:01:51;;;;;;;10.27;5.53;;;26.70;73.80;;;;;;4960591;28;20212;-73
2022/07/03 04:04:22;;;;;;;7.50;4.70;;;26.70;73.90;;;;;;4959469;28;20194;-72
2022/07/03 04:06:50;;;;;;;6.60;4.50;;;26.70;73.50;;;;;;4954803;28;20495;-73
2022/07/03 04:09:18;;;;;;;6.82;4.47;;;26.70;72.60;;;;;;4967020;28;20220;-73
2022/07/03 04:11:47;;;;;;;5.68;3.95;;;26.70;72.00;;;;;;4960259;28;20198;-73
2022/07/03 04:14:15;;;;;;;7.80;3.75;;;26.80;71.70;;;;;;4955131;28;20226;-73
2022/07/03 04:16:43;;;;;;;6.82;4.22;;;26.70;71.20;;;;;;4962579;28;20210;-73
2022/07/03 04:19:12;;;;;;;9.15;4.50;;;26.80;70.90;;;;;;4960370;28;20201;-73
2022/07/03 04:21:42;;;;;;;10.25;4.38;;;26.80;70.50;;;;;;4957347;28;20194;-73
2022/07/03 04:24:10;;;;;;;8.00;4.35;;;26.80;70.10;;;;;;4957185;28;20203;-73
2022/07/03 04:26:38;;;;;;;7.57;4.05;;;26.80;69.90;;;;;;4960090;28;20208;-73
2022/07/03 04:29:07;;;;;;;6.72;4.28;;;26.90;69.80;;;;;;4961119;28;20237;-73
2022/07/03 04:31:35;;;;;;;7.97;4.13;;;26.90;69.40;;;;;;4955628;28;21230;-73
2022/07/03 04:34:04;;;;;;;13.32;4.00;;;26.90;69.10;;;;;;4956165;28;20206;-73
2022/07/03 04:36:32;;;;;;;9.15;3.85;;;27.00;68.90;;;;;;4962380;28;20201;-73
2022/07/03 04:39:02;;;;;;;6.22;3.58;;;27.00;68.40;;;;;;4956216;28;20206;-73
2022/07/03 04:41:30;;;;;;;7.88;3.58;;;27.10;68.30;;;;;;4960217;28;20224;-73
2022/07/03 04:43:58;;;;;;;7.90;3.85;;;27.10;68.10;;;;;;4962918;28;21273;-73
2022/07/03 04:46:27;;;;;;;6.53;4.22;;;27.10;68.00;;;;;;4962675;28;20209;-73
2022/07/03 04:48:55;;;;;;;5.60;3.72;;;27.20;68.00;;;;;;4961532;28;20216;-73
2022/07/03 04:51:25;;;;;;;6.47;3.95;;;27.20;67.90;;;;;;4967984;28;20622;-74
2022/07/03 04:53:54;;;;;;;6.85;4.05;;;27.30;67.60;;;;;;4957532;28;20660;-73
2022/07/03 04:56:23;;;;;;;9.55;3.75;;;27.30;67.40;;;;;;4962609;28;20303;-73
2022/07/03 04:58:52;;;;;;;5.45;3.70;;;27.40;67.20;;;;;;4963594;28;20208;-74
2022/07/03 05:01:20;;;;;;;5.75;3.58;;;27.40;66.90;;;;;;4961170;28;20193;-73
2022/07/03 05:03:49;;;;;;;10.23;4.13;;;27.40;66.60;;;;;;4969245;28;20209;-73
2022/07/03 05:06:17;;;;;;;5.03;3.58;;;27.50;66.60;;;;;;4968055;28;20220;-74
2022/07/03 05:08:47;;;;;;;6.30;3.70;;;27.50;66.20;;;;;;4963697;28;20194;-73
2022/07/03 05:11:16;;;;;;;5.70;3.92;;;27.60;65.80;;;;;;4966105;28;20212;-74
2022/07/03 05:13:45;;;;;;;8.85;3.72;;;27.60;65.20;;;;;;4966440;28;20338;-74
2022/07/03 05:16:14;;;;;;;10.85;3.72;;;27.60;65.20;;;;;;4964029;28;20220;-74
2022/07/03 05:18:42;;;;;;;11.80;4.40;;;27.60;65.10;;;;;;4956337;28;20458;-73
2022/07/03 05:21:10;;;;;;;5.47;3.65;;;27.70;65.00;;;;;;4975812;28;20200;-74
2022/07/03 05:23:39;;;;;;;5.30;3.78;;;27.70;64.90;;;;;;4966934;28;20209;-74
2022/07/03 05:26:08;;;;;;;5.43;4.00;;;27.80;64.90;;;;;;4968721;28;20648;-73
2022/07/03 05:28:36;;;;;;;7.28;4.10;;;27.80;64.80;;;;;;4969279;28;21358;-74
2022/07/03 05:31:07;;;;;;;7.25;3.70;;;27.90;64.90;;;;;;4969405;28;20197;-74
2022/07/03 05:33:35;;;;;;;5.80;3.58;;;27.90;64.60;;;;;;4970132;28;20224;-74
2022/07/03 05:36:04;;;;;;;5.45;3.60;;;28.00;64.50;;;;;;4967520;28;20214;-75
2022/07/03 05:41:19;;;;;;;6.00;3.70;;;28.10;63.90;;;;;;4965206;28;20612;-74
2022/07/03 05:43:48;;;;;;;7.13;3.80;;;28.20;64.20;;;;;;4967315;28;20206;-74
2022/07/03 05:46:17;;;;;;;6.20;4.07;;;28.20;64.20;;;;;;4966035;28;20197;-75
2022/07/03 05:48:46;;;;;;;9.77;3.72;;;28.30;64.20;;;;;;4964214;28;20208;-74
2022/07/03 05:51:14;;;;;;;5.45;3.80;;;28.30;64.20;;;;;;4965467;28;20221;-74
2022/07/03 05:53:43;;;;;;;7.40;4.03;;;28.30;63.90;;;;;;4965404;28;20690;-74
2022/07/03 05:56:11;;;;;;;7.68;3.70;;;28.40;63.50;;;;;;4967490;28;20333;-74
2022/07/03 05:58:41;;;;;;;4.70;3.50;;;28.40;63.60;;;;;;4966390;28;20214;-74
2022/07/03 06:01:09;;;;;;;5.75;4.15;;;28.50;63.70;;;;;;4965151;28;20238;-74
2022/07/03 06:03:39;;;;;;;6.82;3.60;;;28.50;63.40;;;;;;4965785;28;20808;-75
2022/07/03 06:06:08;;;;;;;9.70;4.00;;;28.60;62.90;;;;;;4966191;28;20560;-75
2022/07/03 06:08:37;;;;;;;6.60;3.75;;;28.70;62.50;;;;;;4959994;28;20593;-75
2022/07/03 06:11:09;;;;;;;7.20;3.42;;;28.70;62.40;;;;;;4961925;28;20234;-77
2022/07/03 06:13:37;;;;;;;9.52;3.63;;;28.70;62.30;;;;;;4963832;28;20263;-75
2022/07/03 06:16:06;;;;;;;7.25;3.35;;;28.80;62.20;;;;;;4966509;28;20225;-76
2022/07/03 06:18:34;;;;;;;6.43;3.65;;;28.80;61.60;;;;;;4965636;28;20256;-76
2022/07/03 06:21:04;;;;;;;5.63;3.42;;;28.90;61.60;;;;;;4962625;28;20835;-75
2022/07/03 06:23:33;;;;;;;17.05;6.78;;;28.90;61.20;;;;;;4965526;28;20197;-76
2022/07/03 06:26:14;;;;;;;9.80;8.07;;;29.00;60.80;;;;;;4967303;28;20190;-76
2022/07/03 06:28:43;;;;;;;7.60;3.65;;;29.00;60.50;;;;;;4966719;28;20648;-76
2022/07/03 06:31:11;;;;;;;7.38;4.72;;;29.10;60.40;;;;;;4965372;28;20289;-75
2022/07/03 06:33:40;;;;;;;6.07;3.92;;;29.10;60.10;;;;;;4965729;28;20729;-75
2022/07/03 06:36:10;;;;;;;9.05;4.07;;;29.10;60.30;;;;;;4961035;28;20254;-75
2022/07/03 06:38:38;;;;;;;5.95;3.50;;;29.20;60.30;;;;;;4965943;28;20198;-75
2022/07/03 06:41:06;;;;;;;10.10;4.97;;;29.30;60.00;;;;;;4964222;28;20845;-75
2022/07/03 06:43:35;;;;;;;9.80;3.72;;;29.30;59.70;;;;;;4963184;28;20279;-76
2022/07/03 06:46:03;;;;;;;5.55;3.67;;;29.40;59.30;;;;;;4966957;28;20189;-75
2022/07/03 06:48:31;;;;;;;6.05;3.42;;;29.50;59.20;;;;;;4966003;28;20198;-75
2022/07/03 06:51:00;;;;;;;5.47;2.92;;;29.50;59.00;;;;;;4963467;28;20237;-75
2022/07/03 06:53:30;;;;;;;7.30;3.97;;;29.60;58.50;;;;;;4966193;28;20216;-75
2022/07/03 06:55:58;;;;;;;6.45;3.47;;;29.60;58.30;;;;;;4964525;28;20623;-74
2022/07/03 06:58:26;;;;;;;6.35;3.10;;;29.70;58.00;;;;;;4966149;28;20202;-75
2022/07/03 07:00:54;;;;;;;4.38;2.80;;;29.80;56.80;;;;;;4965592;28;20205;-75
2022/07/03 07:03:23;;;;;;;6.22;3.38;;;29.80;56.70;;;;;;4967120;28;20252;-75
2022/07/03 07:05:51;;;;;;;5.72;3.05;;;29.80;56.00;;;;;;4962857;28;20204;-75
2022/07/03 07:08:20;;;;;;;5.60;4.47;;;29.90;56.20;;;;;;4962003;28;20201;-75
2022/07/03 07:10:49;;;;;;;8.48;4.25;;;29.90;56.40;;;;;;4961523;28;20202;-75
2022/07/03 07:13:18;;;;;;;10.23;3.80;;;29.90;56.50;;;;;;4966977;28;20249;-75
2022/07/03 07:15:46;;;;;;;7.95;3.00;;;29.90;56.70;;;;;;4963099;28;20225;-76
2022/07/03 07:18:15;;;;;;;7.50;3.80;;;29.90;56.80;;;;;;4964481;28;20205;-75
2022/07/03 07:20:43;;;;;;;7.70;4.18;;;30.00;56.80;;;;;;4965341;28;20194;-75
2022/07/03 07:23:11;;;;;;;6.22;4.20;;;30.00;56.30;;;;;;4964699;28;20285;-75
2022/07/03 07:25:40;;;;;;;12.73;5.00;;;30.00;56.20;;;;;;4963752;28;20206;-75
2022/07/03 07:28:12;;;;;;;4.88;3.40;;;30.10;56.50;;;;;;4965215;28;20201;-75
2022/07/03 07:30:41;;;;;;;8.82;5.25;;;30.20;56.70;;;;;;4965889;28;20724;-75
2022/07/03 07:33:10;;;;;;;5.50;3.45;;;30.30;56.50;;;;;;4964473;28;20228;-75
2022/07/03 07:35:38;;;;;;;6.07;3.40;;;30.40;56.60;;;;;;4965204;28;20206;-76
2022/07/03 07:38:06;;;;;;;10.35;5.90;;;30.40;56.60;;;;;;4963617;28;20205;-75
2022/07/03 07:40:36;;;;;;;9.48;3.33;;;30.50;56.70;;;;;;4963374;28;20197;-76
2022/07/03 07:43:05;;;;;;;6.97;3.75;;;30.50;56.80;;;;;;4962506;28;20208;-75
2022/07/03 07:45:35;;;;;;;7.07;3.88;;;30.50;55.80;;;;;;4964424;28;20204;-76
2022/07/03 07:48:04;;;;;;;5.95;3.90;;;30.50;55.40;;;;;;4960322;28;20289;-75
2022/07/03 07:50:33;;;;;;;12.65;6.28;;;30.60;55.50;;;;;;4963062;28;20245;-75
2022/07/03 07:53:01;;;;;;;7.78;4.03;;;30.60;55.40;;;;;;4964119;28;20194;-76
2022/07/03 07:55:29;;;;;;;15.38;5.07;;;30.70;55.40;;;;;;4964436;28;20212;-76
2022/07/03 07:57:58;;;;;;;7.53;4.60;;;30.70;55.30;;;;;;4962845;28;20723;-76
2022/07/03 08:00:26;;;;;;;14.27;5.85;;;30.80;55.20;;;;;;4962643;28;21485;-75
2022/07/03 08:05:41;;;;;;;5.35;4.22;;;30.90;55.10;;;;;;4962474;28;20217;-76
2022/07/03 08:08:18;;;;;;;8.73;4.20;;;30.90;55.40;;;;;;4962306;28;20201;-78
2022/07/03 08:10:48;;;;;;;6.22;4.10;;;31.00;54.60;;;;;;4959690;28;20233;-76
2022/07/03 08:13:20;;;;;;;13.63;3.85;;;31.00;53.70;;;;;;4962805;28;20220;-76
2022/07/03 08:15:48;;;;;;;5.97;4.03;;;31.00;54.10;;;;;;4965172;28;20204;-76
2022/07/03 08:18:18;;;;;;;8.48;4.53;;;31.10;53.20;;;;;;4963228;28;20746;-76
2022/07/03 08:20:46;;;;;;;5.57;3.47;;;31.10;53.10;;;;;;4964750;28;20201;-75
2022/07/03 08:23:14;;;;;;;8.35;5.80;;;31.20;52.30;;;;;;4961164;28;20213;-75
2022/07/03 08:25:43;;;;;;;10.32;4.70;;;31.20;52.10;;;;;;4964705;28;20207;-76
2022/07/03 08:28:11;;;;;;;6.72;3.47;;;31.20;51.20;;;;;;4963180;28;20938;-76
2022/07/03 08:30:40;;;;;;;7.40;3.50;;;31.30;51.00;;;;;;4962495;28;20204;-76
2022/07/03 08:33:08;;;;;;;16.83;3.03;;;31.30;50.90;;;;;;4963605;28;20549;-75
2022/07/03 08:35:38;;;;;;;16.40;7.25;;;31.30;50.70;;;;;;4965123;28;20224;-76
2022/07/03 08:38:06;;;;;;;54.42;9.68;;;31.40;50.70;;;;;;4962336;28;20232;-76
2022/07/03 08:40:35;;;;;;;5.88;3.22;;;31.40;50.50;;;;;;4964945;28;20817;-76
2022/07/03 08:43:04;;;;;;;5.97;4.18;;;31.50;50.00;;;;;;4964947;28;20592;-76
2022/07/03 08:45:35;;;;;;;11.30;7.18;;;31.50;49.50;;;;;;4964251;28;20248;-76
2022/07/03 08:48:07;;;;;;;128.88;24.60;;;31.60;49.90;;;;;;4960575;28;20201;-77
2022/07/03 08:50:38;;;;;;;34.33;9.75;;;31.70;50.10;;;;;;4963841;28;20233;-75
2022/07/03 08:53:07;;;;;;;10.27;4.70;;;31.70;50.00;;;;;;4961774;28;20221;-76
2022/07/03 08:55:36;;;;;;;6.32;4.03;;;31.80;49.70;;;;;;4964563;28;20202;-75
2022/07/03 08:58:06;;;;;;;4.55;2.95;;;31.90;49.90;;;;;;4962709;28;20220;-76
2022/07/03 09:00:35;;;;;;;4.80;3.10;;;31.90;48.80;;;;;;4963289;28;20648;-77
2022/07/03 09:03:04;;;;;;;6.57;3.97;;;31.90;48.70;;;;;;4963989;28;20209;-75
2022/07/03 09:05:35;;;;;;;11.43;3.45;;;32.00;48.60;;;;;;4957350;28;20760;-75
2022/07/03 09:08:07;;;;;;;5.75;2.70;;;32.00;48.90;;;;;;4961740;28;20201;-76
2022/07/03 09:10:36;;;;;;;10.15;3.83;;;32.00;48.80;;;;;;4961117;28;20216;-76
2022/07/03 09:13:04;;;;;;;7.45;3.95;;;32.00;49.00;;;;;;4958340;28;20198;-76
2022/07/03 09:15:32;;;;;;;6.15;3.03;;;32.10;49.60;;;;;;4963923;28;22016;-76
2022/07/03 09:18:03;;;;;;;8.30;3.67;;;32.20;48.90;;;;;;4962443;28;20225;-76
2022/07/03 09:20:33;;;;;;;8.73;3.15;;;32.20;48.90;;;;;;4961924;28;20217;-76
2022/07/03 09:23:14;;;;;;;6.65;2.92;;;32.30;48.80;;;;;;4963308;28;20748;-77
2022/07/03 09:26:02;;;;;;;7.60;3.22;;;32.40;48.80;;;;;;4962010;28;20201;-76
2022/07/03 09:28:45;;;;;;;7.70;4.03;;;32.40;48.50;;;;;;4960916;28;20598;-76
2022/07/03 09:31:15;;;;;;;7.10;4.68;;;32.50;48.90;;;;;;4959844;28;20194;-76
2022/07/03 09:33:54;;;;;;;6.70;3.42;;;32.60;48.40;;;;;;4963447;28;20696;-76
2022/07/03 09:36:24;;;;;;;4.20;3.10;;;32.60;48.30;;;;;;4962584;28;20204;-75
2022/07/03 09:38:54;;;;;;;6.25;4.07;;;32.70;48.40;;;;;;4961996;28;20225;-76
2022/07/03 09:41:22;;;;;;;4.53;2.88;;;32.70;48.10;;;;;;4958056;28;20204;-77
2022/07/03 09:43:50;;;;;;;8.55;3.17;;;32.80;48.50;;;;;;4960681;28;20711;-76
2022/07/03 09:46:19;;;;;;;5.07;2.90;;;32.90;47.80;;;;;;4960056;28;20655;-76
2022/07/03 09:48:47;;;;;;;8.50;3.30;;;32.90;47.80;;;;;;4967014;28;20894;-76
2022/07/03 09:51:19;;;;;;;5.05;3.08;;;32.90;47.80;;;;;;4966184;28;20252;-76
2022/07/03 09:53:55;;;;;;;10.20;5.07;;;32.90;47.80;;;;;;4967795;28;20959;-76
2022/07/03 09:56:27;;;;;;;11.65;5.05;;;32.90;48.20;;;;;;4966126;28;20204;-76
2022/07/03 09:59:07;;;;;;;5.90;3.88;;;33.00;48.70;;;;;;4964282;28;20224;-75
2022/07/03 10:01:37;;;;;;;6.47;3.60;;;33.00;48.70;;;;;;4966194;28;20201;-75
2022/07/03 10:04:17;;;;;;;11.40;7.13;;;33.00;48.40;;;;;;4963790;28;20244;-76
2022/07/03 10:06:50;;;;;;;14.25;3.80;;;33.00;48.80;;;;;;4967037;28;20812;-77
2022/07/03 10:09:21;;;;;;;11.10;6.10;;;33.00;48.70;;;;;;4964412;28;20213;-76
2022/07/03 10:11:50;;;;;;;5.75;4.53;;;33.00;48.60;;;;;;4967045;28;20205;-76
2022/07/03 10:14:19;;;;;;;6.05;3.05;;;32.90;47.90;;;;;;4963872;28;20201;-76
2022/07/03 10:16:49;;;;;;;9.30;4.78;;;32.90;47.80;;;;;;4965669;28;20258;-75
2022/07/03 10:19:19;;;;;;;5.63;4.00;;;32.90;48.00;;;;;;4962051;28;20218;-76
2022/07/03 10:21:53;;;;;;;5.50;2.88;;;32.90;47.60;;;;;;4966942;28;20197;-76
2022/07/03 10:24:25;;;;;;;8.20;4.55;;;32.90;47.60;;;;;;4965312;28;20198;-76
2022/07/03 10:26:55;;;;;;;4.07;2.38;;;33.00;48.10;;;;;;4965009;28;20193;-77
2022/07/03 10:29:25;;;;;;;11.93;3.60;;;32.90;46.90;;;;;;4963175;28;20186;-76
2022/07/03 10:31:57;;;;;;;2.63;2.10;;;33.00;47.30;;;;;;4964155;28;20225;-74
2022/07/03 10:34:28;;;;;;;6.65;2.65;;;33.10;47.60;;;;;;4962276;28;20296;-75
2022/07/03 10:37:00;;;;;;;8.77;2.45;;;33.10;47.30;;;;;;4960647;28;20209;-74
2022/07/03 10:39:38;;;;;;;9.18;4.68;;;33.10;47.60;;;;;;4961273;28;20680;-76
2022/07/03 10:45:08;;;;;;;3.92;2.35;;;33.20;47.40;;;;;;4965783;28;20305;-75
2022/07/03 10:47:43;;;;;;;5.15;3.17;;;33.30;46.80;;;;;;4964897;28;20869;-75
2022/07/03 10:50:13;;;;;;;7.35;3.58;;;33.30;47.10;;;;;;4961853;28;20251;-75
2022/07/03 10:52:42;;;;;;;3.45;2.13;;;33.30;47.40;;;;;;4965688;28;20202;-75
2022/07/03 10:55:13;;;;;;;5.20;2.63;;;33.30;47.50;;;;;;4964753;28;20202;-75
2022/07/03 10:57:47;;;;;;;4.75;3.20;;;33.40;47.60;;;;;;4965715;28;20210;-75
2022/07/03 11:00:17;;;;;;;9.65;4.28;;;33.40;47.90;;;;;;4961222;28;20197;-76
2022/07/03 11:02:48;;;;;;;5.60;2.90;;;33.50;48.00;;;;;;4964347;28;20201;-75
2022/07/03 11:05:28;;;;;;;7.07;4.47;;;33.50;48.10;;;;;;4930771;28;20201;-75
2022/07/03 11:08:11;;;;;;;4.68;3.20;;;33.50;47.60;;;;;;4964813;28;20675;-74
2022/07/03 11:10:42;;;;;;;6.15;2.83;;;33.50;47.90;;;;;;4966462;28;20282;-74
2022/07/03 11:13:23;;;;;;;5.97;3.40;;;33.50;47.90;;;;;;4966578;28;20209;-75
2022/07/03 11:15:53;;;;;;;4.50;2.53;;;33.50;48.40;;;;;;4955254;28;20197;-76
2022/07/03 11:18:28;;;;;;;6.35;3.38;;;33.60;49.10;;;;;;4965332;28;20225;-74
2022/07/03 11:21:32;;;;;;;5.70;3.03;;;33.60;48.80;;;;;;4965893;28;20203;-75
2022/07/03 11:24:29;;;;;;;5.60;3.70;;;33.60;48.80;;;;;;4958405;28;20197;-75
2022/07/03 11:27:22;;;;;;;6.07;3.60;;;33.60;48.80;;;;;;4954742;28;20197;-75
2022/07/03 11:29:59;;;;;;;5.90;3.17;;;33.60;48.90;;;;;;4966613;28;20194;-74
2022/07/03 11:32:52;;;;;;;7.33;3.40;;;33.60;49.10;;;;;;4960850;28;20451;-75
2022/07/03 11:35:48;;;;;;;7.00;3.33;;;33.60;49.50;;;;;;4960487;28;20197;-75
2022/07/03 11:38:18;;;;;;;6.93;3.90;;;33.60;49.60;;;;;;4965743;28;20336;-75
2022/07/03 11:40:49;;;;;;;6.40;3.47;;;33.60;49.90;;;;;;4960933;28;20200;-74
2022/07/03 11:43:19;;;;;;;5.00;3.53;;;33.70;50.10;;;;;;4959617;28;20202;-75
2022/07/03 11:45:48;;;;;;;6.00;3.17;;;33.80;49.90;;;;;;4964430;28;20197;-75
2022/07/03 11:48:18;;;;;;;7.53;3.40;;;33.80;49.70;;;;;;4957977;28;20426;-76
2022/07/03 11:50:48;;;;;;;5.72;3.75;;;33.80;50.00;;;;;;4963786;28;20261;-75
2022/07/03 11:53:19;;;;;;;8.55;3.15;;;33.90;50.00;;;;;;4955795;28;20564;-75
2022/07/03 11:55:53;;;;;;;5.03;3.15;;;34.00;50.00;;;;;;4965662;28;20210;-74
2022/07/03 11:58:23;;;;;;;4.65;3.10;;;34.00;49.90;;;;;;4962204;28;20213;-75
2022/07/03 12:00:53;;;;;;;4.45;3.25;;;34.10;49.70;;;;;;4966679;28;20288;-75
2022/07/03 12:03:26;;;;;;;4.82;3.53;;;34.10;49.60;;;;;;4962667;28;20213;-75
2022/07/03 12:05:57;;;;;;;5.28;3.35;;;34.20;49.70;;;;;;4967069;28;20204;-75
2022/07/03 12:08:30;;;;;;;5.40;3.22;;;34.30;49.90;;;;;;4964789;28;20185;-75
2022/07/03 12:11:04;;;;;;;5.65;3.42;;;34.30;49.40;;;;;;4960252;28;20198;-75
2022/07/03 12:13:34;;;;;;;4.47;3.08;;;34.30;49.30;;;;;;4963074;28;20206;-74
2022/07/03 12:16:04;;;;;;;3.90;3.05;;;34.30;49.20;;;;;;4956429;28;20190;-75
2022/07/03 12:18:50;;;;;;;4.90;3.03;;;34.30;49.40;;;;;;4959713;28;20233;-78
2022/07/03 12:21:20;;;;;;;4.97;2.63;;;34.30;49.00;;;;;;4971165;28;20202;-77
2022/07/03 12:23:50;;;;;;;5.80;3.40;;;34.40;49.20;;;;;;4964403;28;20204;-76
2022/07/03 12:26:30;;;;;;;7.18;3.78;;;34.50;49.00;;;;;;4969362;28;20198;-77
2022/07/03 12:29:04;;;;;;;4.30;3.05;;;34.60;48.90;;;;;;4963064;28;20197;-77
2022/07/03 12:31:33;;;;;;;4.22;3.13;;;34.60;48.80;;;;;;4963738;28;20256;-79
2022/07/03 12:34:03;;;;;;;6.38;2.88;;;34.70;48.70;;;;;;4961470;28;20194;-78
2022/07/03 12:36:31;;;;;;;4.10;2.85;;;34.80;48.40;;;;;;4960151;28;20231;-76
2022/07/03 12:39:00;;;;;;;6.28;3.10;;;34.80;48.30;;;;;;4966904;28;20221;-75
2022/07/03 12:41:29;;;;;;;5.28;3.42;;;34.80;47.90;;;;;;4966815;28;20198;-77
2022/07/03 12:44:01;;;;;;;6.53;3.35;;;34.90;48.00;;;;;;4959762;28;20996;-77
2022/07/03 12:46:35;;;;;;;4.95;3.20;;;34.90;48.20;;;;;;4964768;28;20194;-78
2022/07/03 12:49:10;;;;;;;4.55;3.17;;;35.00;48.00;;;;;;4960206;28;20205;-78
2022/07/03 12:51:44;;;;;;;4.35;3.20;;;35.10;48.00;;;;;;4959335;28;20333;-79
2022/07/03 12:54:16;;;;;;;5.70;3.55;;;35.10;47.80;;;;;;4963379;28;20217;-77
2022/07/03 12:56:45;;;;;;;5.35;3.55;;;35.10;47.80;;;;;;4967193;28;20656;-77
2022/07/03 12:59:26;;;;;;;4.97;3.65;;;35.10;47.80;;;;;;4969457;28;20217;-77
2022/07/03 13:02:03;;;;;;;4.70;3.63;;;35.10;48.10;;;;;;4968432;28;20217;-77
2022/07/03 13:04:35;;;;;;;5.43;3.22;;;35.20;47.70;;;;;;4969275;28;20202;-78
2022/07/03 13:07:06;;;;;;;5.72;3.47;;;35.20;47.80;;;;;;4970323;28;20189;-78
2022/07/03 13:09:35;;;;;;;6.18;3.45;;;35.30;47.70;;;;;;4971458;28;20268;-77
2022/07/03 13:12:04;;;;;;;5.32;3.53;;;35.30;47.30;;;;;;4972410;28;20198;-76
2022/07/03 13:14:34;;;;;;;5.20;3.63;;;35.40;47.30;;;;;;4970373;28;20312;-76
2022/07/03 13:17:03;;;;;;;5.93;3.90;;;35.40;47.00;;;;;;4976116;28;20202;-78